Herentals, Belgium
Current Conditions -  °F | °C
As of 3:25 AM on Saturday 20 Dec 2014 (Local Time) from EBDT Reporting Station
NA  
Wind Chill: 35°   Ceiling: NA
Heat Index: 41°   Visibility: NA
Dew Point: 36°   Wind: 9mph
Humidity: 81%   Direction: 240°WSW
Pressure: 30.18"   Gusts: NA
Location:  51.18°N, 4.83°E
Report Text: EBDT 200225Z AUTO 24008KT //// /// 05/02 Q1022
Loading
Personal Weather Stations






























Interactive Weather Map New forecast layout! Learn more

10-Day Weather Forecast

Advertisements
Track Severe Weather on mobile